Time;durP1;ratioP1;P1;durP2;ratioP2;P2;SDS_P1;SDS_P2;PMS_P1;PMS_P2;Temp;Humidity;BMP_temperature;BMP_pressure;BME280_temperature;BME280_humidity;BME280_pressure;Samples;Min_cycle;Max_cycle;Signal;HPM_P1;HPM_P2
2021/06/27 00:01:53;;;;;;;3.33;3.02;;;;;;;15.53;79.65;95695.66;1746355;81;21027;-59
2021/06/27 00:04:20;;;;;;;5.22;3.02;;;;;;;15.50;79.98;95699.77;1710696;81;20995;-59
2021/06/27 00:06:48;;;;;;;4.72;3.00;;;;;;;15.44;79.76;95707.09;1733683;81;21062;-59
2021/06/27 00:09:15;;;;;;;5.58;3.02;;;;;;;15.35;79.62;95706.97;1732947;81;21161;-59
2021/06/27 00:11:42;;;;;;;10.32;2.80;;;;;;;15.24;80.03;95705.14;1733257;81;21061;-59
2021/06/27 00:14:08;;;;;;;6.15;3.20;;;;;;;15.21;80.03;95706.11;1724406;81;21004;-60
2021/06/27 00:16:35;;;;;;;5.25;3.10;;;;;;;15.23;79.79;95703.41;1733580;81;21054;-59
2021/06/27 00:19:04;;;;;;;6.80;3.45;;;;;;;15.20;79.96;95696.41;1740771;81;20982;-59
2021/06/27 00:21:32;;;;;;;5.55;3.33;;;;;;;15.28;79.71;95697.47;1733413;80;21003;-59
2021/06/27 00:23:58;;;;;;;4.40;3.08;;;;;;;15.33;79.33;95703.49;1736108;81;21023;-59
2021/06/27 00:26:27;;;;;;;4.53;2.85;;;;;;;15.30;79.08;95711.58;1758433;81;21563;-59
2021/06/27 00:28:54;;;;;;;3.77;3.12;;;;;;;15.31;78.90;95706.19;1761981;81;21029;-59
2021/06/27 00:31:21;;;;;;;4.72;3.08;;;;;;;15.32;78.66;95709.71;1740152;81;21010;-59
2021/06/27 00:33:48;;;;;;;8.23;2.83;;;;;;;15.27;78.65;95705.91;1749792;81;21052;-59
2021/06/27 00:36:15;;;;;;;5.87;3.15;;;;;;;15.34;78.55;95705.22;1762344;81;21595;-59
2021/06/27 00:38:41;;;;;;;7.72;3.40;;;;;;;15.27;78.16;95704.59;1759143;81;20983;-59
2021/06/27 00:41:08;;;;;;;9.50;3.08;;;;;;;15.16;78.50;95702.75;1740158;81;21166;-59
2021/06/27 00:43:35;;;;;;;5.22;3.10;;;;;;;15.03;78.32;95701.45;1744581;81;21544;-59
2021/06/27 00:46:03;;;;;;;4.03;2.98;;;;;;;14.98;79.64;95696.75;1752964;80;21030;-59
2021/06/27 00:48:30;;;;;;;4.75;3.83;;;;;;;14.94;79.60;95705.27;1765887;81;21041;-59
2021/06/27 00:50:59;;;;;;;3.92;3.58;;;;;;;14.85;79.59;95702.47;1762220;81;21053;-59
2021/06/27 00:53:27;;;;;;;6.92;3.08;;;;;;;14.79;80.96;95700.03;1760810;81;21020;-59
2021/06/27 00:55:55;;;;;;;4.45;3.87;;;;;;;14.86;80.60;95702.00;1738891;81;21578;-59
2021/06/27 00:58:34;;;;;;;9.33;4.28;;;;;;;14.86;80.73;95699.34;1747280;81;21532;-59
2021/06/27 01:01:05;;;;;;;3.90;2.98;;;;;;;14.84;80.59;95694.11;1752369;81;21042;-59
2021/06/27 01:03:32;;;;;;;4.97;3.20;;;;;;;14.79;79.91;95693.83;1742969;81;21038;-59
2021/06/27 01:05:59;;;;;;;4.40;3.77;;;;;;;14.75;79.85;95694.41;1729324;81;21098;-59
2021/06/27 01:08:26;;;;;;;4.17;3.42;;;;;;;14.69;79.68;95692.83;1754732;81;21022;-59
2021/06/27 01:10:53;;;;;;;4.28;2.98;;;;;;;14.70;80.94;95693.69;1749320;81;21152;-59
2021/06/27 01:13:22;;;;;;;7.08;3.52;;;;;;;14.68;80.25;95687.55;1752342;81;21007;-60
2021/06/27 01:15:50;;;;;;;5.33;3.12;;;;;;;14.64;80.61;95687.23;1728639;80;21034;-59
2021/06/27 01:18:17;;;;;;;5.28;3.80;;;;;;;14.59;81.34;95679.88;1740708;81;20990;-59
2021/06/27 01:20:45;;;;;;;5.83;3.65;;;;;;;14.63;81.12;95683.72;1731590;81;21027;-59
2021/06/27 01:23:16;;;;;;;5.08;3.70;;;;;;;14.65;81.11;95681.02;1746226;81;21042;-59
2021/06/27 01:25:48;;;;;;;7.45;3.72;;;;;;;14.64;81.19;95681.49;1744981;81;21046;-59
2021/06/27 01:28:15;;;;;;;3.58;3.27;;;;;;;14.70;80.72;95678.62;1735438;81;21512;-59
2021/06/27 01:30:42;;;;;;;5.97;3.00;;;;;;;14.68;80.20;95677.80;1724492;81;21030;-59
2021/06/27 01:33:14;;;;;;;3.65;3.08;;;;;;;14.64;80.02;95671.30;1749703;81;21540;-59
2021/06/27 01:35:42;;;;;;;6.08;3.25;;;;;;;14.63;79.86;95673.56;1755687;81;21539;-59
2021/06/27 01:38:12;;;;;;;8.18;3.15;;;;;;;14.50;80.14;95675.72;1746538;81;21176;-59
2021/06/27 01:40:39;;;;;;;4.92;3.10;;;;;;;14.45;80.18;95673.21;1728792;81;20991;-59
2021/06/27 01:43:14;;;;;;;6.17;3.20;;;;;;;14.36;81.62;95672.63;1753628;81;21054;-59
2021/06/27 01:45:47;;;;;;;4.37;3.37;;;;;;;14.37;81.42;95671.27;1730417;81;20991;-59
2021/06/27 01:48:15;;;;;;;9.85;3.40;;;;;;;14.43;80.91;95671.52;1752376;81;21066;-59
2021/06/27 01:50:46;;;;;;;4.42;3.80;;;;;;;14.46;80.76;95673.64;1728694;81;21349;-60
2021/06/27 01:53:15;;;;;;;5.42;3.75;;;;;;;14.51;80.92;95678.77;1736757;81;21026;-60
2021/06/27 01:55:42;;;;;;;4.90;3.47;;;;;;;14.51;80.69;95676.12;1743403;81;21069;-59
2021/06/27 01:58:10;;;;;;;6.55;3.27;;;;;;;14.50;80.59;95681.03;1732498;81;21050;-59
2021/06/27 02:00:38;;;;;;;9.08;3.40;;;;;;;14.48;80.68;95677.09;1749891;81;20987;-59
2021/06/27 02:03:06;;;;;;;5.85;3.47;;;;;;;14.45;79.92;95677.19;1724580;81;21106;-59
2021/06/27 02:05:33;;;;;;;4.05;3.30;;;;;;;14.46;79.96;95675.40;1755869;81;21022;-59
2021/06/27 02:08:00;;;;;;;7.22;3.35;;;;;;;14.50;79.77;95678.38;1754287;81;21017;-59
2021/06/27 02:10:29;;;;;;;8.48;3.15;;;;;;;14.41;79.40;95679.99;1724277;81;21517;-59
2021/06/27 02:12:59;;;;;;;4.80;3.30;;;;;;;14.31;79.93;95683.86;1735880;81;21023;-60
2021/06/27 02:15:26;;;;;;;5.15;2.90;;;;;;;14.22;79.64;95685.03;1724606;81;21426;-59
2021/06/27 02:18:16;;;;;;;6.65;3.80;;;;;;;14.22;79.70;95679.73;1746662;81;21023;-59
2021/06/27 02:20:43;;;;;;;4.33;2.83;;;;;;;14.26;79.95;95678.26;1744779;80;21035;-59
2021/06/27 02:23:10;;;;;;;6.60;3.77;;;;;;;14.37;80.53;95677.05;1756405;81;21047;-59
2021/06/27 02:25:36;;;;;;;5.62;2.75;;;;;;;14.39;80.00;95682.72;1725524;81;20994;-59
2021/06/27 02:28:03;;;;;;;7.15;3.77;;;;;;;14.32;79.42;95682.96;1750903;81;20999;-59
2021/06/27 02:30:29;;;;;;;4.20;3.33;;;;;;;14.28;79.53;95691.46;1756703;81;21038;-59
2021/06/27 02:32:56;;;;;;;5.58;3.60;;;;;;;14.25;79.89;95687.58;1760860;81;21560;-59
2021/06/27 02:35:23;;;;;;;3.47;3.17;;;;;;;14.28;80.08;95691.46;1756931;81;21062;-59
2021/06/27 02:37:49;;;;;;;7.83;3.50;;;;;;;14.26;79.90;95691.53;1761223;81;21536;-60
2021/06/27 02:40:16;;;;;;;5.35;3.55;;;;;;;14.20;80.64;95693.49;1759929;81;21077;-59
2021/06/27 02:42:43;;;;;;;7.50;3.33;;;;;;;14.13;80.57;95691.48;1725774;81;20987;-59
2021/06/27 02:45:12;;;;;;;6.40;3.45;;;;;;;14.08;79.87;95685.45;1762121;81;21062;-59
2021/06/27 02:47:40;;;;;;;3.97;3.00;;;;;;;14.00;79.59;95692.78;1760117;80;21317;-59
2021/06/27 02:50:11;;;;;;;3.27;2.67;;;;;;;13.96;79.94;95692.45;1743040;81;21055;-59
2021/06/27 02:52:39;;;;;;;3.40;2.87;;;;;;;13.92;80.64;95693.47;1728542;81;21011;-59
2021/06/27 02:55:09;;;;;;;4.57;3.10;;;;;;;13.90;81.57;95688.67;1726795;81;21143;-59
2021/06/27 02:57:36;;;;;;;4.03;3.37;;;;;;;13.90;80.92;95688.67;1757219;80;21061;-59
2021/06/27 03:00:06;;;;;;;5.20;3.62;;;;;;;13.95;80.92;95688.94;1756986;81;21073;-59
2021/06/27 03:02:33;;;;;;;6.17;3.33;;;;;;;14.09;80.88;95685.02;1754400;81;21544;-59
2021/06/27 03:05:00;;;;;;;4.47;3.20;;;;;;;14.16;80.88;95678.57;1733426;81;21027;-59
2021/06/27 03:07:26;;;;;;;5.97;3.30;;;;;;;14.15;80.68;95676.84;1738219;81;21103;-59
2021/06/27 03:09:53;;;;;;;10.40;3.93;;;;;;;14.10;79.98;95674.33;1759045;81;21026;-59
2021/06/27 03:12:19;;;;;;;3.87;3.00;;;;;;;14.14;80.16;95670.68;1745022;81;21612;-59
2021/06/27 03:14:46;;;;;;;6.33;3.17;;;;;;;14.10;80.41;95669.02;1743427;81;21017;-59
2021/06/27 03:17:12;;;;;;;4.47;2.47;;;;;;;14.09;80.12;95660.67;1743386;81;21029;-60
2021/06/27 03:19:39;;;;;;;4.60;3.30;;;;;;;14.11;80.48;95664.58;1748683;81;21527;-61
2021/06/27 03:22:06;;;;;;;5.08;3.27;;;;;;;14.08;80.99;95665.55;1746584;81;21026;-59
2021/06/27 03:24:32;;;;;;;5.90;2.92;;;;;;;14.12;81.71;95665.88;1748329;81;21457;-59
2021/06/27 03:26:59;;;;;;;4.70;3.12;;;;;;;14.23;81.89;95657.09;1746289;81;21029;-60
2021/06/27 03:29:25;;;;;;;4.72;3.00;;;;;;;14.34;81.94;95659.44;1742737;81;21035;-59
2021/06/27 03:31:52;;;;;;;9.28;3.27;;;;;;;14.35;82.36;95658.97;1749593;81;21067;-59
2021/06/27 03:34:20;;;;;;;3.80;2.90;;;;;;;14.41;82.14;95654.77;1737757;81;21097;-59
2021/06/27 03:36:47;;;;;;;3.50;3.00;;;;;;;14.48;82.17;95653.66;1747476;81;21089;-59
2021/06/27 03:39:18;;;;;;;4.30;2.95;;;;;;;14.48;82.60;95653.66;1740557;81;20970;-59
2021/06/27 03:41:50;;;;;;;3.90;3.30;;;;;;;14.64;82.25;95656.70;1749954;81;21151;-59
2021/06/27 03:44:12;;;;;;;5.60;3.37;;;;;;;14.73;82.29;95651.55;1749632;81;21121;-60
2021/06/27 03:46:39;;;;;;;7.28;3.00;;;;;;;14.85;82.02;95653.33;1749439;81;21063;-59
2021/06/27 03:49:05;;;;;;;4.45;3.30;;;;;;;14.97;82.39;95658.69;1745718;81;21026;-59
2021/06/27 03:51:32;;;;;;;4.33;3.33;;;;;;;15.08;82.04;95659.63;1754468;81;21034;-59
2021/06/27 03:53:59;;;;;;;6.35;3.60;;;;;;;15.20;81.19;95662.33;1746019;81;21328;-59
2021/06/27 03:56:25;;;;;;;6.80;4.05;;;;;;;15.30;81.34;95651.30;1739127;81;21017;-59
2021/06/27 03:58:54;;;;;;;4.35;3.80;;;;;;;15.47;81.11;95649.37;1750690;81;21035;-59
2021/06/27 04:01:21;;;;;;;4.87;3.67;;;;;;;15.58;80.57;95651.16;1744071;81;21029;-59
2021/06/27 04:03:48;;;;;;;4.70;3.65;;;;;;;15.68;80.50;95654.80;1741406;81;21010;-59
2021/06/27 04:06:15;;;;;;;7.78;4.00;;;;;;;15.72;79.98;95656.44;1752944;81;21183;-59
2021/06/27 04:08:42;;;;;;;4.75;3.90;;;;;;;15.75;79.98;95659.87;1749566;81;20984;-59
2021/06/27 04:11:08;;;;;;;8.00;4.78;;;;;;;15.84;80.10;95664.43;1737764;81;21508;-59
2021/06/27 04:13:36;;;;;;;5.35;4.22;;;;;;;15.90;79.98;95662.41;1747417;81;21535;-59
2021/06/27 04:16:04;;;;;;;4.28;3.87;;;;;;;15.94;80.07;95661.81;1748536;81;21002;-60
2021/06/27 04:18:34;;;;;;;4.85;4.30;;;;;;;15.92;79.88;95659.20;1749905;81;20997;-59
2021/06/27 04:21:01;;;;;;;6.22;4.70;;;;;;;16.00;80.03;95662.90;1744129;81;21045;-59
2021/06/27 04:23:30;;;;;;;8.83;4.40;;;;;;;16.07;79.87;95667.53;1737892;81;21018;-59
2021/06/27 04:25:57;;;;;;;12.75;4.70;;;;;;;16.08;79.69;95665.30;1743526;81;21127;-59
2021/06/27 04:28:24;;;;;;;7.27;4.73;;;;;;;16.12;80.01;95654.44;1751466;81;21005;-59
2021/06/27 04:30:50;;;;;;;4.85;3.80;;;;;;;16.20;79.83;95658.13;1747413;81;21555;-60
2021/06/27 04:33:17;;;;;;;7.42;4.40;;;;;;;16.22;78.85;95661.13;1744851;81;21046;-59
2021/06/27 04:35:44;;;;;;;7.30;4.28;;;;;;;16.30;79.49;95663.95;1743738;81;20998;-59
2021/06/27 04:38:15;;;;;;;5.72;4.22;;;;;;;16.38;79.64;95664.07;1712425;82;21002;-60
2021/06/27 04:40:42;;;;;;;6.05;4.17;;;;;;;16.47;79.45;95672.14;1755235;81;21094;-60
2021/06/27 04:43:08;;;;;;;5.75;4.12;;;;;;;16.58;79.35;95670.36;1747203;81;21021;-59
2021/06/27 04:45:39;;;;;;;8.43;4.28;;;;;;;16.72;79.10;95661.34;1753605;81;21058;-59
2021/06/27 04:48:08;;;;;;;6.10;3.90;;;;;;;16.84;78.80;95660.87;1751021;81;21019;-59
2021/06/27 04:50:37;;;;;;;5.40;4.05;;;;;;;16.99;78.39;95664.69;1755350;81;21022;-60
2021/06/27 04:53:04;;;;;;;6.65;3.42;;;;;;;17.07;77.38;95657.22;1744912;81;21488;-59
2021/06/27 04:55:30;;;;;;;4.65;3.30;;;;;;;17.06;76.49;95658.64;1750063;81;21041;-59
2021/06/27 04:57:57;;;;;;;5.67;4.10;;;;;;;17.06;76.15;95657.30;1751193;81;20991;-59
2021/06/27 05:00:23;;;;;;;5.15;4.03;;;;;;;17.17;77.13;95654.16;1747129;81;21042;-59
2021/06/27 05:02:50;;;;;;;4.40;3.65;;;;;;;17.36;77.42;95659.55;1743730;81;20986;-59
2021/06/27 05:05:16;;;;;;;6.28;3.70;;;;;;;17.48;77.32;95657.19;1738086;81;21050;-59
2021/06/27 05:07:43;;;;;;;5.03;3.60;;;;;;;17.61;76.12;95651.31;1744008;81;21543;-59
2021/06/27 05:10:11;;;;;;;7.50;3.70;;;;;;;17.71;75.28;95649.95;1745689;81;21112;-59
2021/06/27 05:12:37;;;;;;;6.95;4.10;;;;;;;17.89;76.37;95648.27;1741699;81;21003;-59
2021/06/27 05:15:07;;;;;;;7.75;3.40;;;;;;;18.12;76.60;95651.22;1750995;81;21037;-59
2021/06/27 05:17:33;;;;;;;5.03;3.92;;;;;;;18.31;75.16;95652.05;1740041;81;21025;-59
2021/06/27 05:20:00;;;;;;;4.80;3.62;;;;;;;18.48;75.02;95649.05;1741580;81;21047;-60
2021/06/27 05:22:26;;;;;;;7.03;3.62;;;;;;;18.67;74.42;95644.54;1751764;81;21021;-59
2021/06/27 05:24:52;;;;;;;9.70;3.80;;;;;;;18.97;73.36;95649.30;1740863;81;21062;-59
2021/06/27 05:27:19;;;;;;;7.92;4.50;;;;;;;18.97;73.36;95649.30;1747222;81;21599;-59
2021/06/27 05:29:45;;;;;;;5.97;4.42;;;;;;;19.08;72.13;95652.78;1749875;81;21057;-59
2021/06/27 05:32:12;;;;;;;6.42;4.90;;;;;;;19.17;73.31;95646.47;1739942;81;21579;-59
2021/06/27 05:34:39;;;;;;;6.12;5.12;;;;;;;19.31;72.78;95660.48;1740195;81;21065;-59
2021/06/27 05:37:05;;;;;;;6.83;5.35;;;;;;;19.31;72.78;95660.48;1709955;82;21050;-59
2021/06/27 05:39:32;;;;;;;6.70;6.00;;;;;;;19.36;71.68;95656.23;1747516;81;21137;-59
2021/06/27 05:41:58;;;;;;;6.62;5.78;;;;;;;19.35;71.71;95652.70;1743670;81;21638;-59
2021/06/27 05:44:25;;;;;;;7.25;5.90;;;;;;;19.38;70.68;95662.38;1747387;81;21527;-59
2021/06/27 05:46:52;;;;;;;6.45;5.78;;;;;;;19.38;70.68;95662.38;1741555;81;21515;-59
2021/06/27 05:49:18;;;;;;;7.20;5.67;;;;;;;19.42;70.58;95671.47;1743410;81;21076;-60
2021/06/27 06:04:06;;;;;;;6.17;5.33;;;;;;;20.58;67.24;95671.49;1860085;77;22513;-59
2021/06/27 06:06:32;;;;;;;9.78;5.40;;;;;;;20.47;67.35;95666.72;1832520;78;21054;-59
2021/06/27 06:08:59;;;;;;;5.58;5.08;;;;;;;20.45;67.40;95672.63;1832534;78;21103;-59
2021/06/27 06:11:27;;;;;;;6.25;5.05;;;;;;;20.44;66.83;95676.27;1832425;78;20999;-59
2021/06/27 06:13:55;;;;;;;6.00;5.40;;;;;;;20.46;67.04;95679.73;1832278;78;21491;-59
2021/06/27 06:16:23;;;;;;;8.08;5.25;;;;;;;20.49;66.14;95677.36;1832416;78;21437;-59
2021/06/27 06:18:50;;;;;;;9.13;5.00;;;;;;;20.49;66.49;95682.24;1832242;78;21059;-59
2021/06/27 06:21:17;;;;;;;7.70;5.28;;;;;;;20.55;66.91;95676.17;1832298;78;21039;-59
2021/06/27 06:23:45;;;;;;;6.30;5.55;;;;;;;20.55;66.44;95687.76;1832455;78;20956;-59
2021/06/27 06:26:12;;;;;;;9.15;5.45;;;;;;;20.63;67.21;95683.30;1832040;78;21008;-59
2021/06/27 06:28:39;;;;;;;5.97;5.37;;;;;;;20.73;67.51;95682.67;1832009;78;21059;-60
2021/06/27 06:31:08;;;;;;;6.37;5.78;;;;;;;20.85;67.35;95687.82;1832026;78;20972;-59
2021/06/27 06:33:35;;;;;;;5.87;5.35;;;;;;;20.94;66.68;95684.63;1831941;78;21059;-59
2021/06/27 06:36:02;;;;;;;6.17;5.58;;;;;;;21.00;66.17;95689.23;1832461;78;20995;-59
2021/06/27 06:38:29;;;;;;;6.35;5.03;;;;;;;21.04;64.97;95687.64;1831984;78;21518;-59
2021/06/27 06:40:56;;;;;;;5.95;5.17;;;;;;;21.12;65.52;95690.72;1832018;78;20996;-59
2021/06/27 06:43:22;;;;;;;5.78;5.28;;;;;;;21.18;64.86;95692.17;1832046;78;21008;-59
2021/06/27 06:45:49;;;;;;;7.20;5.67;;;;;;;21.27;64.56;95683.59;1832251;78;20948;-59
2021/06/27 06:48:15;;;;;;;8.08;5.53;;;;;;;21.38;64.74;95687.86;1831993;78;21004;-59
2021/06/27 06:50:42;;;;;;;5.87;5.37;;;;;;;21.52;65.05;95691.53;1831995;78;21492;-59
2021/06/27 06:53:08;;;;;;;6.00;5.40;;;;;;;21.60;64.51;95690.12;1832459;78;20996;-59
2021/06/27 06:55:35;;;;;;;5.30;4.80;;;;;;;21.66;63.70;95685.33;1832262;78;21012;-60
2021/06/27 06:58:01;;;;;;;6.30;5.20;;;;;;;21.73;63.98;95692.06;1832101;78;21016;-59
2021/06/27 07:00:28;;;;;;;6.83;5.60;;;;;;;21.85;64.51;95694.00;1832401;78;21003;-59
2021/06/27 07:02:54;;;;;;;6.83;6.17;;;;;;;21.96;64.90;95692.84;1831883;78;21047;-59
2021/06/27 07:05:22;;;;;;;9.35;5.58;;;;;;;22.04;62.95;95690.53;1831417;78;21089;-59
2021/06/27 07:07:49;;;;;;;6.25;5.37;;;;;;;22.09;63.32;95687.56;1831199;78;21015;-59
2021/06/27 07:10:15;;;;;;;7.40;5.55;;;;;;;22.20;63.72;95696.32;1831543;78;21000;-59
2021/06/27 07:12:43;;;;;;;6.25;5.65;;;;;;;22.32;62.91;95696.89;1831899;78;21014;-59
2021/06/27 07:15:11;;;;;;;6.42;5.83;;;;;;;22.42;61.98;95703.90;1831574;78;20999;-59
2021/06/27 07:17:38;;;;;;;5.87;5.10;;;;;;;22.56;62.86;95702.55;1831718;78;21485;-59
2021/06/27 07:20:08;;;;;;;5.97;5.47;;;;;;;22.67;61.38;95708.56;1831401;78;20984;-59
2021/06/27 07:22:34;;;;;;;5.80;5.30;;;;;;;22.79;60.75;95719.02;1831636;78;21473;-59
2021/06/27 07:25:01;;;;;;;6.45;5.85;;;;;;;22.90;61.26;95716.48;1831890;78;20976;-59
2021/06/27 07:27:28;;;;;;;6.00;5.40;;;;;;;23.01;59.47;95718.52;1831668;78;21020;-59
2021/06/27 07:29:54;;;;;;;4.97;4.25;;;;;;;23.14;59.87;95718.57;1831491;78;20996;-60
2021/06/27 07:32:21;;;;;;;5.15;4.75;;;;;;;23.20;57.50;95716.80;1831360;78;20999;-59
2021/06/27 07:34:47;;;;;;;4.97;4.47;;;;;;;23.28;56.17;95710.41;1831276;78;21034;-60
2021/06/27 07:37:14;;;;;;;4.67;4.10;;;;;;;23.33;56.15;95712.31;1831842;78;21063;-59
2021/06/27 07:39:41;;;;;;;4.70;4.10;;;;;;;23.39;55.25;95720.00;1831413;78;20984;-59
2021/06/27 07:42:08;;;;;;;4.55;4.10;;;;;;;23.44;52.50;95715.16;1831856;78;21012;-59
2021/06/27 07:44:34;;;;;;;5.20;4.62;;;;;;;23.51;52.32;95720.52;1831430;78;21006;-59
2021/06/27 07:47:01;;;;;;;4.97;4.45;;;;;;;23.55;52.19;95715.77;1831405;78;21008;-59
2021/06/27 07:49:27;;;;;;;5.90;4.30;;;;;;;23.61;52.79;95721.22;1831178;78;21594;-59
2021/06/27 07:51:54;;;;;;;6.60;4.12;;;;;;;23.70;53.80;95720.59;1794010;78;20972;-59
2021/06/27 07:54:21;;;;;;;4.60;4.20;;;;;;;23.84;51.97;95718.31;1831742;78;21027;-59
2021/06/27 07:56:48;;;;;;;4.28;3.90;;;;;;;23.90;52.48;95721.95;1831359;78;21040;-59
2021/06/27 07:59:15;;;;;;;4.97;4.33;;;;;;;23.94;50.94;95717.59;1831354;78;21007;-59
2021/06/27 08:01:42;;;;;;;6.28;5.67;;;;;;;24.10;52.83;95713.82;1832024;78;20983;-59
2021/06/27 08:04:09;;;;;;;6.55;5.50;;;;;;;24.18;51.86;95710.09;1826188;78;21082;-59
2021/06/27 08:06:35;;;;;;;5.20;4.75;;;;;;;24.26;52.35;95712.24;1831714;78;20975;-59
2021/06/27 08:09:04;;;;;;;5.33;4.83;;;;;;;24.35;50.86;95703.02;1826879;78;21534;-59
2021/06/27 08:11:31;;;;;;;5.45;4.70;;;;;;;24.44;50.10;95708.72;1831395;78;20992;-59
2021/06/27 08:13:57;;;;;;;5.10;4.60;;;;;;;24.47;51.14;95713.91;1832008;78;21000;-59
2021/06/27 08:16:24;;;;;;;5.80;5.12;;;;;;;24.50;50.60;95713.22;1831308;78;21513;-59
2021/06/27 08:18:50;;;;;;;5.72;4.50;;;;;;;24.61;51.13;95709.75;1831375;78;21017;-59
2021/06/27 08:21:19;;;;;;;3.92;3.47;;;;;;;24.73;49.48;95710.20;1831944;78;21051;-59
2021/06/27 08:23:46;;;;;;;4.20;3.80;;;;;;;24.74;48.27;95714.61;1831663;78;21042;-59
2021/06/27 08:26:13;;;;;;;4.75;3.75;;;;;;;24.80;47.86;95710.63;1831614;78;21016;-60
2021/06/27 08:28:40;;;;;;;3.95;3.60;;;;;;;24.91;48.12;95713.88;1831633;78;21017;-59
2021/06/27 08:31:07;;;;;;;4.72;4.08;;;;;;;25.07;49.11;95719.85;1831836;78;21014;-59
2021/06/27 08:33:34;;;;;;;3.30;3.10;;;;;;;25.25;47.90;95713.14;1832051;78;21134;-59
2021/06/27 08:36:00;;;;;;;4.37;3.60;;;;;;;25.42;47.41;95716.39;1831765;78;21008;-59
2021/06/27 08:38:27;;;;;;;4.83;4.42;;;;;;;25.42;48.13;95719.94;1831327;78;21075;-59
2021/06/27 08:40:57;;;;;;;4.00;3.60;;;;;;;25.56;48.90;95714.00;1831731;78;21537;-59
2021/06/27 08:43:34;;;;;;;3.85;3.55;;;;;;;25.56;47.09;95720.27;1831586;78;21058;-59
2021/06/27 08:46:07;;;;;;;4.20;3.90;;;;;;;25.61;46.41;95723.47;1831556;78;20996;-59
2021/06/27 08:48:38;;;;;;;3.98;3.67;;;;;;;25.71;46.23;95719.58;1831698;78;21517;-59
2021/06/27 08:51:07;;;;;;;5.25;4.00;;;;;;;25.84;46.73;95719.49;1831972;78;21048;-59
2021/06/27 08:53:36;;;;;;;5.08;3.90;;;;;;;25.99;46.27;95717.48;1831556;78;21003;-59
2021/06/27 08:56:05;;;;;;;4.25;3.90;;;;;;;26.12;46.78;95719.09;1831776;78;20960;-60
2021/06/27 08:58:36;;;;;;;4.45;4.05;;;;;;;26.12;46.05;95715.53;1831792;78;21449;-60
2021/06/27 09:01:13;;;;;;;4.60;4.22;;;;;;;26.08;44.69;95720.80;1831627;78;21027;-59
2021/06/27 09:03:40;;;;;;;4.00;3.62;;;;;;;26.16;45.65;95718.84;1822322;78;21008;-59
2021/06/27 09:06:09;;;;;;;3.90;3.50;;;;;;;26.29;44.64;95718.27;1834843;78;21011;-60
2021/06/27 09:08:35;;;;;;;5.83;4.22;;;;;;;26.47;45.85;95717.29;1835057;78;21019;-59
2021/06/27 09:11:14;;;;;;;5.25;4.80;;;;;;;26.60;45.02;95719.91;1834799;78;21042;-59
2021/06/27 09:13:45;;;;;;;4.47;4.08;;;;;;;26.62;45.82;95718.80;1834979;78;21003;-59
2021/06/27 09:16:22;;;;;;;4.45;4.15;;;;;;;26.60;45.36;95723.46;1835111;78;21505;-59
2021/06/27 09:18:50;;;;;;;4.22;3.85;;;;;;;26.58;45.24;95728.62;1835138;78;21011;-60
2021/06/27 09:21:19;;;;;;;5.42;4.55;;;;;;;26.64;46.38;95722.73;1834711;78;21054;-59
2021/06/27 09:23:48;;;;;;;5.72;4.12;;;;;;;26.83;44.36;95726.16;1835111;78;21050;-59
2021/06/27 09:26:29;;;;;;;6.30;4.37;;;;;;;27.02;43.86;95730.45;1835101;78;21012;-59
2021/06/27 09:28:56;;;;;;;4.40;4.00;;;;;;;27.19;44.10;95726.39;1835214;78;21004;-60
2021/06/27 09:31:42;;;;;;;4.90;4.50;;;;;;;27.50;43.90;95725.18;1834819;78;21016;-59
2021/06/27 09:34:13;;;;;;;10.88;4.42;;;;;;;27.46;43.18;95720.99;1834984;78;21011;-60
2021/06/27 09:36:52;;;;;;;4.70;4.30;;;;;;;27.41;43.85;95724.94;1835199;78;20996;-59
2021/06/27 09:39:19;;;;;;;4.35;3.95;;;;;;;27.63;45.99;95723.14;1835180;78;20991;-59
2021/06/27 09:41:53;;;;;;;5.03;4.53;;;;;;;27.84;44.08;95725.91;1834847;78;21046;-60
2021/06/27 09:44:22;;;;;;;4.17;3.87;;;;;;;27.95;42.59;95720.44;1835169;78;21022;-59
2021/06/27 09:46:51;;;;;;;4.35;3.95;;;;;;;28.02;42.86;95716.21;1835096;78;20968;-60
2021/06/27 09:49:35;;;;;;;4.30;3.75;;;;;;;28.06;41.62;95719.50;1834976;78;21477;-59
2021/06/27 09:52:07;;;;;;;4.83;3.95;;;;;;;27.87;42.90;95719.36;1833474;78;21484;-59
2021/06/27 09:54:36;;;;;;;4.80;4.15;;;;;;;27.72;41.91;95711.53;1834968;78;20983;-60
2021/06/27 09:57:04;;;;;;;6.12;4.40;;;;;;;27.78;43.93;95720.98;1835199;78;21457;-59
2021/06/27 09:59:41;;;;;;;4.33;4.03;;;;;;;28.01;44.03;95721.25;1830408;78;20952;-59
2021/06/27 10:02:08;;;;;;;4.33;3.83;;;;;;;28.18;41.10;95713.52;1834979;78;20996;-61
2021/06/27 10:04:37;;;;;;;4.50;4.10;;;;;;;28.16;40.99;95715.50;1832544;78;21532;-59
2021/06/27 10:07:06;;;;;;;4.47;3.90;;;;;;;28.25;41.28;95719.64;1831604;78;20971;-59
2021/06/27 10:09:35;;;;;;;4.35;4.00;;;;;;;28.51;42.54;95715.66;1831349;78;21014;-59
2021/06/27 10:12:09;;;;;;;4.70;4.30;;;;;;;28.73;41.04;95707.80;1831613;78;21007;-59
2021/06/27 10:14:51;;;;;;;4.17;3.87;;;;;;;28.73;38.08;95714.12;1831581;78;21051;-59
2021/06/27 10:17:23;;;;;;;4.28;3.85;;;;;;;28.78;39.51;95708.25;1831195;78;21043;-59
2021/06/27 10:19:52;;;;;;;3.90;3.60;;;;;;;28.99;40.28;95715.84;1831834;78;21118;-59
2021/06/27 10:22:20;;;;;;;4.03;3.72;;;;;;;29.24;38.69;95709.06;1831543;78;21047;-60
2021/06/27 10:24:47;;;;;;;3.92;3.62;;;;;;;28.99;38.25;95708.20;1831298;78;21062;-59
2021/06/27 10:27:14;;;;;;;4.15;3.80;;;;;;;28.65;39.67;95717.52;1831457;78;21012;-59
2021/06/27 10:29:47;;;;;;;3.45;3.15;;;;;;;28.76;39.32;95705.69;1831517;78;21008;-60
2021/06/27 10:32:16;;;;;;;3.67;3.02;;;;;;;28.94;36.97;95705.03;1831568;78;21002;-60
2021/06/27 10:34:44;;;;;;;3.42;3.12;;;;;;;28.90;36.93;95713.94;1831580;78;20960;-60
2021/06/27 10:37:19;;;;;;;4.00;3.70;;;;;;;28.72;39.39;95705.59;1831429;78;21047;-61
2021/06/27 10:40:09;;;;;;;6.90;3.67;;;;;;;28.86;39.39;95699.79;1831693;78;21518;-59
2021/06/27 10:42:54;;;;;;;4.05;3.60;;;;;;;29.09;39.73;95708.61;1830824;78;21062;-59
2021/06/27 10:45:30;;;;;;;4.95;3.60;;;;;;;29.16;37.58;95699.41;1831355;78;21047;-59
2021/06/27 10:47:56;;;;;;;3.33;3.12;;;;;;;29.16;38.02;95694.48;1831716;78;21056;-59
2021/06/27 10:50:45;;;;;;;3.02;2.40;;;;;;;29.32;36.94;95694.77;1831663;78;21039;-60
2021/06/27 10:53:12;;;;;;;2.70;2.50;;;;;;;29.27;34.60;95688.91;1831523;78;20976;-60
2021/06/27 10:55:44;;;;;;;3.42;3.10;;;;;;;29.17;34.65;95697.04;1831802;78;21007;-59
2021/06/27 10:58:16;;;;;;;3.17;2.87;;;;;;;29.18;36.21;95686.55;1831755;78;21458;-59
2021/06/27 11:00:56;;;;;;;3.45;3.15;;;;;;;29.38;35.23;95688.77;1831995;78;21016;-59
2021/06/27 11:03:42;;;;;;;3.30;2.87;;;;;;;29.59;36.65;95690.52;1831859;78;20995;-59
2021/06/27 11:06:20;;;;;;;3.33;2.98;;;;;;;29.79;36.95;95692.25;1831237;78;21062;-60
2021/06/27 11:08:55;;;;;;;3.10;2.80;;;;;;;30.10;37.13;95679.82;1831762;78;21026;-60
2021/06/27 11:11:21;;;;;;;3.12;2.92;;;;;;;30.24;34.06;95680.77;1830573;78;21019;-59
2021/06/27 11:14:16;;;;;;;3.40;3.10;;;;;;;30.17;34.72;95680.95;1831626;78;21011;-60
2021/06/27 11:17:01;;;;;;;2.42;2.20;;;;;;;30.29;34.08;95681.66;1831797;78;21541;-60
2021/06/27 11:19:32;;;;;;;3.08;2.87;;;;;;;30.12;33.12;95675.95;1831553;78;20984;-60
2021/06/27 11:22:19;;;;;;;5.03;3.50;;;;;;;29.77;35.12;95684.73;1831393;78;21560;-59
2021/06/27 11:24:49;;;;;;;4.22;3.83;;;;;;;29.85;36.09;95682.66;1824915;78;21068;-60
2021/06/27 11:27:32;;;;;;;5.12;3.33;;;;;;;29.88;35.68;95688.65;1831626;78;21079;-60
2021/06/27 11:30:00;;;;;;;3.02;2.83;;;;;;;30.05;35.81;95687.06;1830190;78;21011;-60
2021/06/27 11:32:37;;;;;;;3.30;3.00;;;;;;;30.22;34.15;95683.25;1831864;78;21016;-59
2021/06/27 11:35:00;;;;;;;3.17;2.87;;;;;;;30.23;33.79;95691.24;1831060;78;20968;-59
2021/06/27 11:37:40;;;;;;;3.40;3.10;;;;;;;30.28;34.57;95683.53;1831407;78;21074;-60
2021/06/27 11:40:08;;;;;;;3.52;2.70;;;;;;;30.36;35.22;95678.70;1831613;78;20984;-59
2021/06/27 11:42:40;;;;;;;2.92;2.72;;;;;;;30.46;33.50;95678.67;1831663;78;20988;-59
2021/06/27 11:45:18;;;;;;;3.83;2.87;;;;;;;30.13;33.64;95677.66;1831108;78;21000;-59
2021/06/27 11:47:53;;;;;;;2.50;2.22;;;;;;;30.27;32.78;95668.72;1831575;78;21549;-60
2021/06/27 11:50:32;;;;;;;3.55;2.60;;;;;;;30.43;32.04;95673.53;1831185;78;21055;-60
2021/06/27 11:53:03;;;;;;;2.92;2.70;;;;;;;30.40;31.59;95667.38;1831578;78;21067;-61
2021/06/27 11:55:34;;;;;;;3.00;2.80;;;;;;;30.38;32.53;95669.38;1828005;78;21497;-59